Terminal Aerodrome Forecast
Issued by NWS Buffalo, NY

Home | Current Version | Previous Version | Text Only | Print | Product List | Glossary On
Versions: 1 2 3 4 5 6 7 8 9 10 11 12 13 14 15 16 17 18 19 20 21 22 23 24
310
FTUS41 KBUF 281120
TAFROC
TAF
KROC 281120Z 2812/2912 24011KT P6SM SCT200
     FM282000 26007KT P6SM BKN200
     FM282200 28004KT P6SM BKN110
     FM290400 19004KT P6SM BKN080
     FM290900 25004KT P6SM VCSH OVC040
     FM291000 26004KT P6SM OVC035=

USA.gov is the U.S. government's official web portal to all federal, state and local government web resources and services.